Snake Valley, Nevada Weather observations

Data are for 10 minute period ending at time listed.
 Day   Time   Solar   Ave.   Ave.  Ave.  Vector  Max.   Baro.   Total    
  of    of     Rad.   Air    Rel.  Wind   Wind   Wind  Press.  Precip.   
Year   Day            Temp.  Hum.  Speed  Dir.   Gust                    
2017   (PST)  Kw/m2    F      %     mph   deg.    mph    mb.     in.     
-------------------------------------------------------------------------
  19   21:50   0.00   27.5    97    3.3   288     4.7   830.5    0.00 
  19   22:00   0.00   28.2    97    3.1   279     4.6   830.5    0.00 
  19   22:10   0.00   29.0    97    1.6   283     2.5   830.4    0.00 
  19   22:20   0.00   28.4    97    1.1   305     2.3   830.4    0.00 
  19   22:30   0.00   27.5    97    1.5   301     3.6   830.4    0.00 
  19   22:40   0.00   26.3    96    1.7    14     3.9   830.3    0.00 
  19   22:50   0.00   26.7    97    1.3   120     3.5   830.2    0.00 
  19   23:00   0.00   25.6    96    2.2   318     3.5   830.1    0.00 
  19   23:10   0.00   25.0    96    1.8    11     3.4   830.1    0.00 
  19   23:20   0.00   23.4    95    3.9   208     5.8   830.2    0.00 
  19   23:30   0.00   23.6    96    4.0   229     5.2   830.0    0.00 
  19   23:40   0.00   24.6    96    2.0   249     3.6   830.0    0.00 
  19   23:50   0.00   24.4    96    2.2   295     3.7   830.0    0.00 
  20    0:00   0.00   24.0    95    1.5   300     3.7   829.8    0.00 
  20    0:10   0.00   22.5    94    1.2   246     2.9   829.8    0.00 
  20    0:20   0.00   21.6    94    2.7   325     4.5   829.8    0.00 
  20    0:30   0.00   21.4    94    1.4    21     2.4   829.7    0.00 
  20    0:40   0.00   20.3    93    2.3     7     3.6   829.6    0.00 
  20    0:50   0.00   18.0    92    2.6   217     4.4   829.6    0.00 
  20    1:00   0.00   18.4    94    3.3   215     5.3   829.5    0.00 
  20    1:10   0.00   17.4    92    3.9   250     5.2   829.6    0.00 
  20    1:20   0.00   18.6    94    4.7   268     5.4   829.7    0.00 
  20    1:30   0.00   19.2    94    3.6   294     5.1   829.7    0.00 
  20    1:40   0.00   18.7    93    1.5   272     3.8   829.7    0.00 
  20    1:50   0.00   17.7    92    4.1   237     4.8   829.7    0.00 
  20    2:00   0.00   18.1    93    4.4   236     7.2   829.7    0.00 
  20    2:10   0.00   18.7    93    4.6   238     6.4   829.7    0.00 
  20    2:20   0.00   18.2    92    5.5   255     7.7   829.6    0.00 
  20    2:30   0.00   18.3    93    2.6   276     6.1   829.5    0.00 
  20    2:40   0.00   17.3    92    1.7   126     5.2   829.5    0.00 
  20    2:50   0.00   17.1    92    0.4   123     1.0   829.5    0.00 
  20    3:00   0.00   16.4    92    0.7   281     2.9   829.5    0.00 
  20    3:10   0.00   17.1    93    1.0   286     2.9   829.5    0.00 
  20    3:20   0.00   18.0    93    3.2   311     3.7   829.4    0.00 
  20    3:30   0.00   18.8    93    2.1   357     4.7   829.4    0.00 
  20    3:40   0.00   20.3    94    2.7    16     4.4   829.2    0.00 
  20    3:50   0.00   19.4    92    4.4   323     6.3   829.1    0.00 
  20    4:00   0.00   18.2    93    4.5   317     8.0   829.0    0.00 
  20    4:10   0.00   18.3    93    2.0   243     4.2   828.9    0.00 
  20    4:20   0.00   17.2    91    3.5   264     4.6   828.8    0.00 
  20    4:30   0.00   17.7    91    1.9   315     2.4   828.8    0.00 
  20    4:40   0.00   17.5    90    2.6   324     3.7   828.7    0.00 
  20    4:50   0.00   16.6    90    3.1   224     4.8   828.8    0.00 
  20    5:00   0.00   17.1    92    3.1   337     5.6   828.6    0.00 
  20    5:10   0.00   18.7    91    4.4   352     5.3   828.4    0.00 
  20    5:20   0.00   19.2    91    4.6   327     7.2   828.3    0.00 
  20    5:30   0.00   19.5    91    5.4   278     9.2   828.3    0.00 
  20    5:40   0.00   18.7    90    4.5   166     5.9   828.2    0.00 
  20    5:50   0.00   18.5    92    3.3   190     5.2   828.1    0.00 
  20    6:00   0.00   18.4    90    4.9   268     5.8   828.1    0.00 
  20    6:10   0.00   17.9    92    4.0   281     5.8   827.9    0.00 
  20    6:20   0.00   19.2    91    3.6   274     5.7   827.8    0.00 
  20    6:30   0.00   19.5    91    4.4   270     6.6   827.9    0.00 
  20    6:40   0.00   22.4    90    6.8   242    11.5   827.7    0.00 
  20    6:50   0.00   26.8    83    6.9   202    14.5   827.7    0.00 
  20    7:00   0.01   25.1    80    3.1   280     6.0   827.5    0.00 
  20    7:10   0.03   23.5    87    3.5   193     6.3   827.5    0.00 
  20    7:20   0.06   23.8    85    2.1   302     4.7   827.3    0.00 
  20    7:30   0.03   24.3    85    2.8   101     5.5   827.1    0.00 
  20    7:40   0.04   23.7    86    3.8   116     5.8   827.2    0.00 
  20    7:50   0.07   22.9    86    4.4   164     6.6   827.0    0.00 
  20    8:00   0.16   22.3    88    4.4   201     6.0   827.0    0.00 
  20    8:10   0.09   23.7    88    7.4   260    10.4   826.8    0.00 
  20    8:20   0.10   24.3    86    6.7   271     9.3   826.6    0.00 
  20    8:30   0.27   26.0    82    2.2   283     6.1   826.7    0.00 
  20    8:40   0.23   27.1    84    0.9   284     3.4   826.5    0.00 
  20    8:50   0.46   29.8    77    1.2   103     3.6   826.3    0.01 
  20    9:00   0.22   30.4    73    1.0   150     2.9   826.1    0.00 
  20    9:10   0.29   28.1    78    3.7   283     5.3   825.9    0.00 
  20    9:20   0.14   26.7    84    5.1   267     6.6   825.9    0.00 
  20    9:30   0.16   26.6    84    2.5   278     4.2   825.9    0.00 
  20    9:40   0.17   27.9    83    0.5   327     1.3   825.9    0.00 
  20    9:50   0.29   27.9    82    2.4   280     4.0   825.9    0.00 
  20   10:00   0.23   28.2    83    2.3   310     3.5   825.8    0.01 
  20   10:10   0.26   29.0    81    2.4   320     4.2   825.7    0.00 
  20   10:20   0.23   29.4    81    3.4   329     5.2   825.5    0.00 
  20   10:30   0.25   30.0    80    2.6   336     4.0   825.2    0.00 
  20   10:40   0.21   30.6    78    2.2   341     3.4   825.0    0.00 
  20   10:50   0.18   30.8    80    2.6    52     5.8   824.8    0.01 
  20   11:00   0.22   31.2    80    2.6   118     6.4   824.6    0.00 
  20   11:10   0.24   30.1    82    5.5   291     7.5   824.4    0.00 
  20   11:20   0.25   30.3    83    4.2   312     6.3   823.9    0.00 
  20   11:30   0.20   30.5    83    3.6   284     5.6   823.7    0.00 
  20   11:40   0.17   30.9    83    3.7   291     7.6   823.5    0.00 
  20   11:50   0.23   31.6    83    2.9   185     6.1   823.2    0.00 
  20   12:00   0.25   32.4    82    4.9   184     8.6   822.9    0.00 
  20   12:10   0.18   31.5    84    3.2   275     5.3   822.7    0.00 
  20   12:20   0.22   30.9    87    4.7   294     6.1   822.4    0.00 
  20   12:30   0.20   31.3    88    3.6   314     5.6   822.1    0.00 
  20   12:40   0.17   31.4    88    1.8   283     3.8   821.9    0.00 
  20   12:50   0.18   31.8    88    1.0   303     2.7   821.7    0.00 
  20   13:00   0.20   31.8    88    1.8   295     3.2   821.5    0.00 
  20   13:10   0.17   31.8    89    2.3   281     5.1   821.4    0.00 
  20   13:20   0.21   31.7    91    1.6   294     5.2   821.2    0.00 
  20   13:30   0.21   32.6    90    1.8   312     3.5   821.0    0.00 
  20   13:40   0.19   32.2    90    3.5   316     5.2   820.9    0.00 
  20   13:50   0.14   32.0    91    3.6   342     5.4   820.8    0.00 
  20   14:00   0.12   32.2    92    2.6   335     5.0   820.7    0.00 
  20   14:10   0.13   32.3    92    3.5     2     9.0   820.6    0.00 
  20   14:20   0.11   32.6    92    1.2   134     4.8   820.5    0.00 
  20   14:30   0.16   32.5    92    2.3   227     4.9   820.2    0.01 
  20   14:40   0.20   33.1    92    0.6   170     2.9   820.0    0.01 
  20   14:50   0.09   32.9    92    2.1   207     7.6   819.8    0.00 
  20   15:00   0.10   32.5    92    4.8   190    11.8   819.6    0.01 
  20   15:10   0.17   32.2    92    4.0   245     8.6   819.4    0.00 
  20   15:20   0.08   32.3    93    4.6   214    12.3   819.4    0.00 
  20   15:30   0.07   32.4    92    6.4   213    12.6   819.5    0.00 
  20   15:40   0.08   33.7    85   10.0   163    16.0   819.2    0.00 
  20   15:50   0.06   33.9    84   10.3   159    21.0   819.1    0.00 
  20   16:00   0.07   33.3    87    9.6   152    12.2   818.7    0.00 
  20   16:10   0.07   32.6    92   10.7   178    17.7   818.8    0.00 
  20   16:20   0.02   33.0    90   15.2   156    20.2   818.7    0.00 
  20   16:30   0.02   33.3    87   12.8   164    18.3   818.6    0.00 
  20   16:40   0.02   33.3    87   14.6   171    23.3   818.5    0.00 
  20   16:50   0.01   33.1    88   20.4   162    26.7   818.2    0.00 
  20   17:00   0.00   33.0    87   20.5   166    27.1   818.3    0.00 
  20   17:10   0.00   33.1    87   19.6   168    28.1   818.3    0.00 
  20   17:20   0.00   33.2    87   19.9   167    27.1   818.2    0.00 
  20   17:30   0.00   33.3    86   14.9   175    22.4   818.4    0.00 
  20   17:40   0.00   33.3    85   14.4   179    21.7   818.5    0.00 
  20   17:50   0.00   33.0    87   17.6   166    23.2   818.4    0.00 
  20   18:00   0.00   32.9    87   12.3   192    21.5   818.4    0.00 
  20   18:10   0.00   32.7    87    4.0   194     7.3   818.4    0.00 
  20   18:20   0.00   32.5    88    5.3   220     9.3   818.4    0.00 
  20   18:30   0.00   31.8    90    2.5   191     6.4   818.3    0.00 
  20   18:40   0.00   31.6    90    2.8   160     9.1   818.3    0.00 
  20   18:50   0.00   31.4    89    5.7   206     9.1   818.4    0.00 
  20   19:00   0.00   30.9    91    3.4   250     5.7   818.4    0.00 
  20   19:10   0.00   30.7    91    8.4   194    19.5   818.2    0.00 
  20   19:20   0.00   32.0    86   16.0   167    24.1   817.9    0.00 
  20   19:30   0.00   31.4    87    7.8   200    13.6   818.1    0.00 
  20   19:40   0.00   31.7    87    8.9   206    14.8   818.1    0.00 
  20   19:50   0.00   33.1    81   11.8   225    20.8   818.0    0.00 
  20   20:00   0.00   33.2    80    6.4   254    13.1   818.1    0.00 
  20   20:10   0.00   32.0    84    5.6   320    10.4   818.1    0.00 
  20   20:20   0.00   31.3    85    1.2   274     2.7   818.2    0.00 
  20   20:30   0.00   30.5    86    1.7   335     3.9   818.2    0.00 
  20   20:40   0.00   30.1    88    1.5    67     3.7   818.1    0.00 
  20   20:50   0.00   30.0    88    1.0   257     2.8   818.1    0.00 
  20   21:00   0.00   29.4    89    2.1   261     3.7   818.0    0.00 
  20   21:10   0.00   29.6    89    3.5   316     6.2   818.0    0.00 
  20   21:20   0.00   29.2    90    4.7   321     6.4   817.9    0.00 
  20   21:30   0.00   28.8    91    3.9   291     5.2   817.9    0.00 
  20   21:40   0.00   28.5    92    4.0   260     5.0   817.9    0.00 

Return to Snake Valley graphs page.


Western Regional Climate Center,wrcc@dri.edu